»·PEaware :: UAL191 KDEN-KASE

UAL191 :: KDEN-KASE

FLIGHT INFORMATION

Flight Status: Arrived
Operator:
United Airlines
More flights by this operator :: More flights under this callsign
Pilot: Sergei F. (8485)
Aircraft: BOEING 737-300
(B733)
More flights by this aircraft type
Origin: KDEN Denver Intl
United States
Destination: KASE Aspen-Pitkin Co/Sardy
United States
More flights between these airports :: More routes between these airports
Route: ROCKI3 DBL
File this flight plan on PilotEdge
Remarks:
Altitude:
(Current/Filed)
16,000ft
Speed:
(Current/Filed)
250kts
Departed: 05-May-18 09:53 PM
Arrived: 05-May-18 10:52 PM
Distance/Time
Traveled:
109nm/0:59
Distance/Time
To Go:
Arrived

Flight Plot

Page will automatically refresh every two minutes.


Map Options




Map Legend


Flown Route
Filed Route
Departure Airport
Arrival Airport
Navaid (VOR, NDB)
Fix

Horizontal Profiles

Position Reports

Time Latitude Longitude Heading Altitude Ground
Speed
05-May-18 21:41 39.853349 -104.675233 5 5383ft 0kts
05-May-18 21:42 39.853349 -104.675233 5 5383ft 0kts
05-May-18 21:43 39.853349 -104.675233 5 5383ft 0kts
05-May-18 21:44 39.853349 -104.675233 5 5383ft 0kts
05-May-18 21:45 39.852912 -104.675180 92 5382ft 0kts
05-May-18 21:46 39.852912 -104.675177 92 5382ft 0kts
05-May-18 21:47 39.852761 -104.672282 89 5396ft 8kts
05-May-18 21:48 39.852717 -104.667289 90 5407ft 15kts
05-May-18 21:49 39.852888 -104.664614 86 5413ft 0kts
05-May-18 21:50 39.853456 -104.662379 11 5415ft 15kts
05-May-18 21:51 39.858386 -104.662298 359 5425ft 19kts
05-May-18 21:52 39.860981 -104.661416 86 5418ft 5kts
05-May-18 21:53 39.855844 -104.660232 180 5415ft 76kts
05-May-18 21:54 39.816343 -104.661757 201 5759ft 166kts
05-May-18 21:55 39.808149 -104.719042 277 6146ft 212kts
05-May-18 21:56 39.815331 -104.810644 277 8301ft 284kts
05-May-18 21:57 39.822774 -104.913435 277 11029ft 293kts
05-May-18 21:58 39.816072 -105.016105 256 13359ft 336kts
05-May-18 21:59 39.792174 -105.139687 257 15719ft 370kts
05-May-18 22:00 39.767298 -105.269036 257 16035ft 371kts
05-May-18 22:01 39.742344 -105.398019 257 16003ft 370kts
05-May-18 22:02 39.717222 -105.527046 257 15976ft 369kts
05-May-18 22:03 39.692076 -105.655367 256 16042ft 365kts
05-May-18 22:04 39.669299 -105.771014 256 16027ft 319kts
05-May-18 22:05 39.647295 -105.881938 256 16046ft 319kts
05-May-18 22:06 39.625077 -105.993403 256 16052ft 319kts
05-May-18 22:07 39.602729 -106.104916 256 16058ft 319kts
05-May-18 22:08 39.580289 -106.216281 256 16073ft 320kts
05-May-18 22:09 39.557855 -106.327022 256 16082ft 320kts
05-May-18 22:10 39.536193 -106.433384 257 16045ft 274kts
05-May-18 22:11 39.517528 -106.524607 257 15968ft 266kts
05-May-18 22:12 39.498693 -106.616210 257 15952ft 264kts
05-May-18 22:13 39.480777 -106.703357 256 14888ft 244kts
05-May-18 22:14 39.463206 -106.788286 255 13899ft 241kts
05-May-18 22:15 39.445848 -106.871562 256 13934ft 236kts
05-May-18 22:16 39.417282 -106.943458 213 13116ft 226kts
05-May-18 22:17 39.361502 -106.935803 158 12251ft 205kts
05-May-18 22:18 39.311910 -106.911281 159 11306ft 175kts
05-May-18 22:19 39.267392 -106.889948 161 10356ft 183kts
05-May-18 22:20 39.222413 -106.894334 250 11356ft 189kts
05-May-18 22:21 39.248229 -106.955117 310 12755ft 228kts
05-May-18 22:22 39.292467 -107.020079 311 14138ft 251kts
05-May-18 22:23 39.337171 -107.084879 310 13955ft 245kts
05-May-18 22:24 39.382336 -107.150336 311 13972ft 246kts
05-May-18 22:25 39.440798 -107.154850 55 13953ft 257kts
05-May-18 22:26 39.467461 -107.069392 68 13952ft 253kts
05-May-18 22:27 39.489951 -106.991264 68 13943ft 232kts
05-May-18 22:28 39.511131 -106.915318 68 13958ft 226kts
05-May-18 22:29 39.485440 -106.864065 197 13631ft 195kts
05-May-18 22:30 39.437325 -106.886238 193 13688ft 184kts
05-May-18 22:31 39.388174 -106.884011 174 12760ft 178kts
05-May-18 22:32 39.340632 -106.875809 172 11660ft 173kts
05-May-18 22:33 39.293857 -106.868463 174 10480ft 171kts
05-May-18 22:34 39.247866 -106.866066 194 10185ft 172kts
05-May-18 22:35 39.246992 -106.915037 305 12030ft 170kts
05-May-18 22:36 39.276428 -106.971085 302 13627ft 212kts
05-May-18 22:37 39.310932 -107.039022 306 13984ft 238kts
05-May-18 22:38 39.352440 -107.105225 310 14005ft 242kts
05-May-18 22:39 39.396884 -107.167895 331 13980ft 242kts
05-May-18 22:40 39.456399 -107.139517 38 13994ft 251kts
05-May-18 22:41 39.509688 -107.081666 38 13959ft 251kts
05-May-18 22:42 39.558864 -107.028071 38 13954ft 224kts
05-May-18 22:43 39.603997 -106.975220 63 13940ft 223kts
05-May-18 22:44 39.573733 -106.921178 171 13967ft 230kts
05-May-18 22:45 39.513557 -106.910101 170 13960ft 205kts
05-May-18 22:46 39.463607 -106.899258 170 14000ft 175kts
05-May-18 22:47 39.415973 -106.889548 171 13449ft 173kts
05-May-18 22:48 39.369817 -106.881840 172 12610ft 169kts
05-May-18 22:49 39.323986 -106.883178 199 11274ft 170kts
05-May-18 22:50 39.280165 -106.896036 170 9335ft 169kts
05-May-18 22:51 39.239234 -106.876603 160 7847ft 153kts
05-May-18 22:52 39.219000 -106.866668 127 7775ft 11kts
05-May-18 22:53 39.218317 -106.864868 68 7783ft 5kts
05-May-18 22:54 39.218461 -106.864436 66 7783ft 0kts

Navigation Log

Ident Type
1. KDEN Airport
2. DEN Navaid
3. CONNR Fix
4. DBL Navaid
5. KASE Airport